aviador You're here:

ZBYN Decoded Metar

TAIYUAN in CHINA
Report Time2017-03-23 03:00:00
UTC Time2017-03-23 04:20:56
Flight Rules Old
Wind090° at 10 kt
W.Decomp.*RWY 13: 8.1 kt HW 5.9 kt LCW
W.Rank090° ranks 2
Current wind is above 090° avg. (5.6)
Visibility6000 m
Phenomena:N/A
Clouds:Scattered 040 Hf
Expected CloudBase > 2,000 ft AGL from Temp-Dew spread
CeilingNone
Temp07°C (ISA -3)
Dew Point02°C (71% RH)
AAT1.7°C
QNH1020 hPa
Density Alt2,073 ft
Elevation2,556 ft
Report Wrong Elevation
Raw Report
METAR ZBYN 230300Z 09005MPS 6000 SCT040 07/02 Q1020 NOSIG=

Extra information for ZBYN:More info

Metar Taf Metar & Taf Last 4 Metars F.Rules Stats Wind Profile Meteogram Temp Stats Airport Information Weather charts Add Link Nearby VenuesMetar ALERT Operation Metar Decoded Social comments